createdAt,value
2018-07-25T00:01:02.333Z,89.60
2018-07-25T00:03:29.542Z,89.80
2018-07-25T00:05:56.799Z,90.10
2018-07-25T00:08:23.953Z,90.40
2018-07-25T00:10:53.508Z,90.70
2018-07-25T00:13:21.251Z,90.90
2018-07-25T00:15:48.390Z,91.00
2018-07-25T00:18:15.544Z,91.20
2018-07-25T00:20:42.829Z,90.60
2018-07-25T00:23:10.016Z,90.40
2018-07-25T00:25:37.164Z,90.40
2018-07-25T00:28:04.367Z,90.80
2018-07-25T00:30:31.518Z,91.30
2018-07-25T00:32:58.709Z,91.60
2018-07-25T00:35:25.922Z,91.60
2018-07-25T00:37:53.208Z,91.70
2018-07-25T00:40:20.382Z,92.10
2018-07-25T00:42:47.965Z,92.40
2018-07-25T00:47:42.953Z,92.70
2018-07-25T00:52:37.395Z,92.80
2018-07-25T00:55:04.647Z,92.70
2018-07-25T00:57:31.803Z,92.70
2018-07-25T00:59:59.028Z,92.80
2018-07-25T01:02:26.193Z,93.20
2018-07-25T01:04:53.314Z,94.00
2018-07-25T01:07:20.764Z,93.90
2018-07-25T01:09:47.893Z,94.20
2018-07-25T01:12:15.126Z,94.40
2018-07-25T01:14:42.252Z,94.70
2018-07-25T01:17:09.443Z,94.90
2018-07-25T01:19:36.682Z,95.20
2018-07-25T01:22:03.926Z,95.50
2018-07-25T01:24:31.162Z,95.70
2018-07-25T01:26:58.297Z,95.90
2018-07-25T01:29:25.510Z,96.10
2018-07-25T01:31:52.687Z,96.00
2018-07-25T01:34:19.811Z,96.20
2018-07-25T01:36:46.986Z,96.10
2018-07-25T01:39:14.170Z,96.20
2018-07-25T01:41:41.289Z,96.30
2018-07-25T01:44:08.541Z,96.20
2018-07-25T01:46:35.704Z,96.00
2018-07-25T01:49:02.986Z,96.10
2018-07-25T01:51:30.120Z,96.20
2018-07-25T01:53:57.319Z,96.30
2018-07-25T01:56:24.826Z,96.30
2018-07-25T01:58:51.963Z,96.20
2018-07-25T02:01:19.233Z,95.90
2018-07-25T02:03:46.336Z,95.50
2018-07-25T02:06:13.544Z,95.60
2018-07-25T02:08:40.660Z,95.60
2018-07-25T02:11:07.875Z,95.70
2018-07-25T02:16:02.283Z,96.10
2018-07-25T02:20:56.854Z,96.60
2018-07-25T02:23:24.660Z,96.60
2018-07-25T02:25:52.820Z,97.00
2018-07-25T02:28:20.035Z,97.30
2018-07-25T02:30:47.185Z,97.50
2018-07-25T02:33:14.601Z,97.70
2018-07-25T02:35:41.768Z,98.00
2018-07-25T02:38:08.958Z,97.90
2018-07-25T02:40:36.126Z,97.90
2018-07-25T02:43:03.324Z,97.90
2018-07-25T02:45:35.118Z,97.80
2018-07-25T02:48:02.289Z,97.70
2018-07-25T02:50:29.473Z,97.60
2018-07-25T02:52:56.692Z,97.70
2018-07-25T02:55:23.969Z,97.90
2018-07-25T02:57:51.225Z,97.90
2018-07-25T03:00:18.403Z,98.00
2018-07-25T03:02:45.605Z,98.20
2018-07-25T03:05:13.854Z,98.30
2018-07-25T03:07:41.104Z,98.30
2018-07-25T03:10:08.252Z,98.50
2018-07-25T03:12:35.407Z,99.00
2018-07-25T03:15:02.710Z,99.20
2018-07-25T03:17:29.953Z,99.40
2018-07-25T03:19:57.207Z,99.40
2018-07-25T03:22:24.413Z,99.50
2018-07-25T03:24:51.580Z,99.40
2018-07-25T03:29:46.005Z,99.90
2018-07-25T03:32:14.133Z,99.90
2018-07-25T03:34:41.263Z,99.90
2018-07-25T03:37:08.415Z,99.90
2018-07-25T03:39:35.549Z,99.90
2018-07-25T03:42:02.741Z,99.90
2018-07-25T03:46:57.146Z,99.90
2018-07-25T03:51:51.543Z,99.90
2018-07-25T03:54:18.695Z,99.90
2018-07-25T04:01:40.575Z,99.90
2018-07-25T04:09:02.389Z,99.90
2018-07-25T04:13:56.756Z,99.90
2018-07-25T04:18:50.992Z,99.90
2018-07-25T04:21:18.129Z,99.90
2018-07-25T04:23:45.279Z,99.90
2018-07-25T04:26:12.358Z,99.90
2018-07-25T04:28:39.511Z,99.90
2018-07-25T04:31:06.687Z,99.90
2018-07-25T04:33:33.947Z,99.90
2018-07-25T04:36:01.172Z,99.90
2018-07-25T04:38:28.411Z,99.90
2018-07-25T04:40:55.564Z,99.90
2018-07-25T04:43:22.751Z,99.90
2018-07-25T04:45:49.894Z,99.90
2018-07-25T04:48:17.120Z,99.90
2018-07-25T04:50:44.293Z,99.90
2018-07-25T04:53:11.494Z,99.90
2018-07-25T04:55:38.879Z,99.90
2018-07-25T05:00:33.468Z,99.90
2018-07-25T05:03:00.661Z,99.90
2018-07-25T05:05:27.886Z,99.90
2018-07-25T05:07:54.990Z,99.90
2018-07-25T05:10:22.381Z,99.90
2018-07-25T05:12:49.689Z,99.90
2018-07-25T05:15:18.905Z,99.90
2018-07-25T05:17:46.211Z,99.90
2018-07-25T05:20:13.415Z,99.90
2018-07-25T05:22:40.670Z,99.90
2018-07-25T05:25:07.918Z,99.90
2018-07-25T05:27:35.143Z,99.90
2018-07-25T05:30:03.077Z,99.90
2018-07-25T05:32:30.252Z,99.90
2018-07-25T05:34:57.488Z,99.90
2018-07-25T05:37:25.639Z,99.90
2018-07-25T05:47:15.855Z,99.90
2018-07-25T05:49:43.117Z,99.90
2018-07-25T05:52:10.543Z,99.90
2018-07-25T05:54:38.077Z,99.90
2018-07-25T05:57:05.355Z,99.90
2018-07-25T05:59:32.810Z,99.90
2018-07-25T06:02:00.047Z,99.90
2018-07-25T06:06:54.547Z,99.90
2018-07-25T06:11:49.415Z,99.90
2018-07-25T06:16:44.928Z,99.90
2018-07-25T06:19:12.188Z,99.90
2018-07-25T06:21:40.889Z,99.90
2018-07-25T06:24:08.215Z,99.90
2018-07-25T06:26:35.444Z,99.90
2018-07-25T06:29:02.692Z,99.90
2018-07-25T06:31:29.986Z,99.90
2018-07-25T06:33:57.195Z,99.80
2018-07-25T06:36:24.448Z,99.40
2018-07-25T06:38:51.707Z,98.50
2018-07-25T06:41:18.964Z,98.40
2018-07-25T06:43:46.253Z,98.40
2018-07-25T06:46:13.586Z,98.30
2018-07-25T06:48:40.886Z,97.90
2018-07-25T06:51:08.348Z,97.70
2018-07-25T06:53:35.733Z,98.00
2018-07-25T06:56:02.970Z,98.00
2018-07-25T06:58:30.444Z,97.80
2018-07-25T07:00:57.606Z,97.80
2018-07-25T07:03:24.836Z,97.70
2018-07-25T07:05:52.059Z,97.40
2018-07-25T07:08:19.441Z,97.10
2018-07-25T07:10:46.601Z,96.90
2018-07-25T07:13:13.965Z,96.60
2018-07-25T07:15:42.430Z,96.80
2018-07-25T07:18:09.749Z,96.90
2018-07-25T07:20:37.644Z,96.60
2018-07-25T07:23:05.125Z,96.30
2018-07-25T07:25:32.432Z,95.90
2018-07-25T07:27:59.641Z,96.10
2018-07-25T07:30:26.805Z,95.80
2018-07-25T07:32:54.043Z,95.50
2018-07-25T07:35:21.286Z,95.30
2018-07-25T07:37:48.590Z,95.00
2018-07-25T07:40:16.398Z,95.00
2018-07-25T07:42:43.611Z,95.00
2018-07-25T07:45:10.864Z,94.80
2018-07-25T07:47:38.983Z,94.60
2018-07-25T07:50:06.272Z,94.30
2018-07-25T07:52:33.983Z,94.40
2018-07-25T07:55:01.175Z,94.50
2018-07-25T07:57:28.400Z,94.50
2018-07-25T07:59:55.655Z,94.30
2018-07-25T08:02:22.969Z,94.20
2018-07-25T08:09:44.600Z,94.00
2018-07-25T08:12:11.849Z,94.10
2018-07-25T08:14:39.197Z,93.80
2018-07-25T08:17:06.719Z,93.60
2018-07-25T08:22:01.144Z,93.00
2018-07-25T08:24:28.308Z,92.60
2018-07-25T08:26:55.502Z,92.30
2018-07-25T08:29:22.675Z,92.00
2018-07-25T08:31:49.887Z,92.10
2018-07-25T08:34:17.036Z,91.70
2018-07-25T08:36:44.282Z,91.70
2018-07-25T08:39:11.925Z,91.40
2018-07-25T08:41:39.992Z,91.10
2018-07-25T08:44:07.144Z,91.40
2018-07-25T08:46:34.451Z,91.10
2018-07-25T08:49:01.720Z,90.30
2018-07-25T08:51:29.602Z,90.10
2018-07-25T08:56:24.045Z,88.20
2018-07-25T08:58:52.266Z,89.00
2018-07-25T09:01:20.159Z,87.60
2018-07-25T09:03:47.387Z,86.80
2018-07-25T09:06:14.875Z,86.30
2018-07-25T09:08:43.435Z,85.60
2018-07-25T09:11:11.507Z,85.40
2018-07-25T09:13:38.705Z,83.90
2018-07-25T09:16:06.516Z,83.40
2018-07-25T09:18:33.871Z,83.40
2018-07-25T09:21:01.035Z,83.60
2018-07-25T09:23:28.391Z,83.10
2018-07-25T09:25:57.288Z,83.30
2018-07-25T09:28:24.703Z,82.90
2018-07-25T09:30:52.015Z,82.10
2018-07-25T09:33:19.266Z,81.00
2018-07-25T09:35:47.090Z,80.90
2018-07-25T09:38:14.401Z,80.40
2018-07-25T09:40:41.730Z,80.00
2018-07-25T09:43:08.931Z,79.70
2018-07-25T09:45:36.108Z,80.00
2018-07-25T09:48:03.446Z,79.80
2018-07-25T09:50:30.673Z,79.30
2018-07-25T09:52:58.061Z,78.30
2018-07-25T09:55:25.300Z,77.20
2018-07-25T09:57:52.553Z,76.00
2018-07-25T10:00:25.536Z,75.00
2018-07-25T10:02:52.810Z,74.20
2018-07-25T10:05:20.073Z,73.60
2018-07-25T10:07:48.030Z,73.20
2018-07-25T10:10:15.121Z,72.00
2018-07-25T10:12:42.418Z,71.80
2018-07-25T10:17:36.828Z,69.10
2018-07-25T10:20:04.188Z,67.40
2018-07-25T10:24:58.683Z,66.40
2018-07-25T10:27:25.908Z,66.70
2018-07-25T10:29:53.946Z,58.60
2018-07-25T10:32:21.778Z,60.50
2018-07-25T10:34:49.090Z,63.00
2018-07-25T10:37:16.562Z,62.40
2018-07-25T10:39:43.809Z,61.80
2018-07-25T10:42:11.044Z,60.90
2018-07-25T10:44:38.340Z,60.20
2018-07-25T10:47:05.795Z,59.70
2018-07-25T10:49:33.080Z,58.90
2018-07-25T10:54:28.173Z,58.50
2018-07-25T10:56:55.576Z,57.30
2018-07-25T10:59:22.754Z,57.00
2018-07-25T11:01:50.378Z,56.20
2018-07-25T11:06:44.851Z,55.80
2018-07-25T11:09:12.024Z,55.70
2018-07-25T11:11:39.339Z,54.70
2018-07-25T11:14:07.247Z,53.40
2018-07-25T11:16:34.854Z,52.80
2018-07-25T11:19:01.944Z,53.20
2018-07-25T11:21:29.210Z,52.40
2018-07-25T11:23:56.347Z,52.20
2018-07-25T11:26:24.076Z,51.80
2018-07-25T11:28:51.283Z,51.40
2018-07-25T11:31:18.591Z,50.80
2018-07-25T11:33:47.009Z,50.30
2018-07-25T11:36:14.523Z,49.70
2018-07-25T11:38:42.618Z,49.00
2018-07-25T11:41:10.408Z,49.10
2018-07-25T11:46:05.719Z,48.00
2018-07-25T11:48:33.028Z,47.70
2018-07-25T11:53:27.953Z,46.40
2018-07-25T11:55:55.143Z,46.20
2018-07-25T11:58:22.659Z,46.50
2018-07-25T12:00:50.103Z,46.30
2018-07-25T12:08:12.943Z,45.40
2018-07-25T12:10:40.341Z,45.10
2018-07-25T12:13:07.556Z,44.70
2018-07-25T12:15:34.803Z,44.20
2018-07-25T12:18:02.033Z,44.10
2018-07-25T12:22:56.655Z,44.30
2018-07-25T12:25:23.810Z,44.40
2018-07-25T12:27:50.956Z,43.10
2018-07-25T12:30:18.516Z,42.60
2018-07-25T12:32:45.788Z,41.90
2018-07-25T12:35:13.042Z,41.90
2018-07-25T12:37:40.205Z,42.60
2018-07-25T12:40:07.768Z,42.20
2018-07-25T12:42:35.057Z,41.80
2018-07-25T12:45:02.540Z,41.60
2018-07-25T12:47:29.704Z,41.00
2018-07-25T12:49:56.988Z,41.60
2018-07-25T12:52:24.196Z,42.00
2018-07-25T12:54:52.072Z,41.60
2018-07-25T12:57:19.469Z,42.00
2018-07-25T12:59:47.389Z,42.60
2018-07-25T13:02:14.604Z,41.50
2018-07-25T13:04:41.732Z,41.00
2018-07-25T13:07:08.902Z,41.00
2018-07-25T13:09:36.105Z,40.70
2018-07-25T13:12:03.922Z,41.00
2018-07-25T13:14:31.135Z,41.00
2018-07-25T13:16:58.305Z,40.50
2018-07-25T13:19:25.732Z,40.00
2018-07-25T13:21:52.935Z,40.00
2018-07-25T13:24:20.192Z,39.90
2018-07-25T13:26:47.567Z,39.80
2018-07-25T13:29:14.833Z,39.60
2018-07-25T13:31:42.027Z,39.00
2018-07-25T13:34:09.530Z,39.00
2018-07-25T13:36:37.583Z,39.10
2018-07-25T13:39:06.328Z,39.30
2018-07-25T13:41:33.605Z,39.20
2018-07-25T13:44:00.861Z,38.00
2018-07-25T13:46:29.403Z,37.90
2018-07-25T13:48:56.639Z,38.30
2018-07-25T13:51:24.899Z,38.70
2018-07-25T13:53:52.174Z,38.80
2018-07-25T13:56:19.411Z,39.50
2018-07-25T13:58:46.703Z,39.00
2018-07-25T14:01:14.020Z,39.60
2018-07-25T14:03:41.316Z,39.90
2018-07-25T14:06:08.534Z,39.60
2018-07-25T14:08:35.775Z,39.60
2018-07-25T14:11:03.064Z,39.30
2018-07-25T14:13:30.282Z,40.00
2018-07-25T14:15:57.563Z,39.40
2018-07-25T14:18:24.955Z,39.30
2018-07-25T14:23:19.599Z,38.80
2018-07-25T14:25:47.030Z,39.20
2018-07-25T14:28:14.428Z,39.70
2018-07-25T14:30:41.971Z,40.20
2018-07-25T14:33:10.108Z,40.00
2018-07-25T14:35:37.373Z,40.10
2018-07-25T14:38:04.972Z,39.80
2018-07-25T14:40:32.145Z,39.60
2018-07-25T14:43:00.181Z,39.50
2018-07-25T14:45:27.385Z,38.40
2018-07-25T14:47:55.094Z,38.10
2018-07-25T14:50:22.356Z,37.30
2018-07-25T14:52:49.592Z,36.70
2018-07-25T14:55:16.841Z,37.50
2018-07-25T14:57:44.097Z,37.10
2018-07-25T15:00:11.367Z,37.20
2018-07-25T15:02:38.589Z,36.10
2018-07-25T15:05:05.869Z,36.50
2018-07-25T15:07:33.055Z,37.30
2018-07-25T15:10:00.314Z,36.30
2018-07-25T15:12:33.409Z,35.90
2018-07-25T15:15:00.538Z,35.90
2018-07-25T15:17:28.478Z,36.50
2018-07-25T15:19:56.604Z,37.10
2018-07-25T15:22:24.014Z,37.10
2018-07-25T15:24:51.541Z,36.60
2018-07-25T15:27:18.740Z,36.90
2018-07-25T15:29:46.035Z,37.40
2018-07-25T15:32:13.258Z,36.40
2018-07-25T15:34:40.557Z,36.10
2018-07-25T15:37:07.851Z,35.60
2018-07-25T15:39:35.101Z,35.00
2018-07-25T15:42:03.070Z,34.60
2018-07-25T15:44:30.360Z,35.10
2018-07-25T15:46:58.456Z,35.50
2018-07-25T15:49:25.756Z,35.30
2018-07-25T15:51:53.980Z,35.90
2018-07-25T15:54:21.278Z,35.40
2018-07-25T15:56:48.508Z,34.90
2018-07-25T15:59:15.716Z,34.90
2018-07-25T16:01:43.899Z,34.10
2018-07-25T16:04:11.068Z,34.20
2018-07-25T16:06:38.315Z,35.00
2018-07-25T16:09:07.671Z,35.60
2018-07-25T16:11:35.559Z,35.10
2018-07-25T16:14:04.025Z,34.40
2018-07-25T16:16:31.290Z,35.20
2018-07-25T16:18:59.060Z,35.10
2018-07-25T16:21:26.263Z,36.10
2018-07-25T16:23:53.583Z,35.20
2018-07-25T16:26:22.426Z,35.60
2018-07-25T16:28:49.919Z,35.30
2018-07-25T16:31:17.172Z,35.40
2018-07-25T16:33:44.427Z,35.30
2018-07-25T16:36:11.727Z,35.50
2018-07-25T16:38:39.610Z,36.40
2018-07-25T16:43:34.199Z,35.10
2018-07-25T16:46:01.583Z,35.40
2018-07-25T16:48:28.925Z,35.40
2018-07-25T16:50:56.266Z,34.80
2018-07-25T16:53:23.743Z,35.00
2018-07-25T16:55:51.121Z,35.80
2018-07-25T16:58:18.341Z,39.80
2018-07-25T17:03:14.727Z,47.90
2018-07-25T17:05:41.928Z,51.40
2018-07-25T17:08:09.336Z,55.30
2018-07-25T17:10:37.531Z,49.20
2018-07-25T17:13:04.941Z,51.80
2018-07-25T17:15:33.316Z,53.70
2018-07-25T17:18:01.322Z,56.90
2018-07-25T17:20:28.603Z,59.80
2018-07-25T17:22:55.804Z,63.40
2018-07-25T17:25:23.751Z,64.70
2018-07-25T17:27:51.533Z,54.70
2018-07-25T17:30:18.860Z,57.00
2018-07-25T17:32:46.111Z,58.40
2018-07-25T17:35:13.263Z,61.50
2018-07-25T17:37:40.465Z,62.80
2018-07-25T17:40:07.882Z,65.50
2018-07-25T17:42:35.325Z,63.70
2018-07-25T17:45:05.606Z,61.90
2018-07-25T17:50:00.257Z,65.60
2018-07-25T17:52:27.462Z,66.20
2018-07-25T17:54:54.671Z,68.60
2018-07-25T17:57:22.292Z,71.90
2018-07-25T17:59:49.544Z,74.90
2018-07-25T18:02:16.931Z,76.90
2018-07-25T18:04:44.186Z,79.00
2018-07-25T18:07:11.581Z,83.70
2018-07-25T18:09:39.078Z,87.10
2018-07-25T18:12:06.732Z,86.20
2018-07-25T18:17:01.866Z,90.90
2018-07-25T18:19:29.088Z,91.20
2018-07-25T18:21:56.286Z,91.00
2018-07-25T18:24:23.503Z,90.80
2018-07-25T18:26:50.661Z,89.60
2018-07-25T18:29:17.858Z,87.40
2018-07-25T18:31:45.074Z,86.20
2018-07-25T18:34:12.404Z,85.80
2018-07-25T18:36:39.614Z,85.60
2018-07-25T18:39:09.176Z,83.80
2018-07-25T18:41:36.592Z,80.30
2018-07-25T18:44:03.842Z,81.20
2018-07-25T18:46:31.171Z,80.80
2018-07-25T18:48:58.743Z,79.00
2018-07-25T18:51:26.018Z,79.80
2018-07-25T18:53:53.230Z,77.80
2018-07-25T18:56:20.436Z,75.20
2018-07-25T18:58:47.788Z,76.30
2018-07-25T19:01:15.801Z,75.90
2018-07-25T19:03:43.045Z,75.80
2018-07-25T19:06:10.263Z,75.50
2018-07-25T19:08:37.527Z,74.60
2018-07-25T19:11:05.427Z,75.00
2018-07-25T19:13:32.740Z,75.50
2018-07-25T19:16:00.524Z,76.20
2018-07-25T19:18:27.898Z,75.70
2018-07-25T19:20:55.155Z,75.90
2018-07-25T19:23:22.476Z,77.00
2018-07-25T19:25:49.737Z,78.10
2018-07-25T19:28:16.982Z,77.80
2018-07-25T19:30:44.251Z,78.10
2018-07-25T19:33:12.205Z,76.90
2018-07-25T19:35:40.128Z,75.40
2018-07-25T19:38:08.276Z,74.70
2018-07-25T19:40:36.085Z,75.10
2018-07-25T19:43:03.400Z,73.80
2018-07-25T19:45:31.352Z,74.20
2018-07-25T19:47:58.772Z,73.20
2018-07-25T19:50:26.365Z,74.60
2018-07-25T19:52:54.725Z,75.30
2018-07-25T19:55:22.571Z,76.60
2018-07-25T19:57:50.249Z,77.10
2018-07-25T20:00:17.954Z,78.50
2018-07-25T20:02:45.390Z,78.80
2018-07-25T20:05:12.953Z,78.60
2018-07-25T20:07:40.213Z,78.00
2018-07-25T20:10:08.743Z,78.20
2018-07-25T20:12:36.280Z,77.50
2018-07-25T20:17:37.049Z,76.40
2018-07-25T20:20:05.229Z,75.30
2018-07-25T20:22:32.671Z,74.30
2018-07-25T20:25:00.240Z,73.20
2018-07-25T20:27:27.546Z,72.40
2018-07-25T20:32:23.949Z,71.90
2018-07-25T20:34:51.447Z,70.80
2018-07-25T20:39:46.657Z,70.50
2018-07-25T20:42:13.988Z,70.50
2018-07-25T20:44:41.496Z,70.80
2018-07-25T20:47:08.804Z,70.80
2018-07-25T20:49:36.114Z,71.00
2018-07-25T20:52:03.947Z,71.00
2018-07-25T20:54:31.168Z,71.10
2018-07-25T20:56:59.088Z,71.30
2018-07-25T20:59:26.362Z,71.20
2018-07-25T21:01:53.621Z,71.60
2018-07-25T21:04:21.354Z,71.40
2018-07-25T21:06:48.609Z,71.80
2018-07-25T21:09:15.825Z,71.90
2018-07-25T21:11:43.894Z,72.30
2018-07-25T21:14:11.927Z,72.20
2018-07-25T21:21:35.255Z,72.30
2018-07-25T21:24:02.580Z,72.30
2018-07-25T21:28:58.076Z,72.40
2018-07-25T21:31:25.583Z,72.80
2018-07-25T21:36:19.978Z,73.40
2018-07-25T21:43:42.617Z,73.90
2018-07-25T21:46:10.535Z,74.00
2018-07-25T21:48:37.782Z,74.60
2018-07-25T21:51:05.004Z,74.50
2018-07-25T21:53:32.192Z,74.70
2018-07-25T21:55:59.357Z,75.20
2018-07-25T21:58:26.536Z,75.10
2018-07-25T22:00:55.785Z,75.60
2018-07-25T22:03:22.946Z,75.90
2018-07-25T22:05:50.756Z,76.40
2018-07-25T22:08:17.901Z,76.20
2018-07-25T22:10:45.141Z,76.80
2018-07-25T22:13:12.232Z,77.40
2018-07-25T22:15:40.249Z,77.80
2018-07-25T22:18:07.428Z,78.70
2018-07-25T22:20:34.728Z,78.70
2018-07-25T22:23:01.837Z,79.00
2018-07-25T22:25:28.951Z,79.10
2018-07-25T22:30:23.367Z,79.60
2018-07-25T22:32:50.513Z,79.40
2018-07-25T22:35:18.268Z,80.20
2018-07-25T22:37:45.441Z,80.20
2018-07-25T22:40:12.528Z,80.00
2018-07-25T22:42:39.668Z,80.00
2018-07-25T22:45:06.852Z,80.30
2018-07-25T22:47:34.058Z,80.50
2018-07-25T22:50:01.453Z,80.60
2018-07-25T22:52:28.899Z,81.00
2018-07-25T22:54:56.824Z,80.70
2018-07-25T22:57:23.947Z,80.80
2018-07-25T22:59:51.116Z,80.90
2018-07-25T23:02:18.278Z,81.40
2018-07-25T23:04:45.475Z,81.30
2018-07-25T23:07:12.603Z,81.60
2018-07-25T23:09:39.685Z,81.70
2018-07-25T23:12:06.863Z,82.20
2018-07-25T23:14:34.065Z,83.20
2018-07-25T23:17:01.894Z,83.40
2018-07-25T23:19:29.052Z,83.60
2018-07-25T23:21:56.183Z,84.10
2018-07-25T23:24:23.319Z,84.30
2018-07-25T23:26:50.476Z,84.10
2018-07-25T23:29:17.667Z,84.10
2018-07-25T23:31:44.874Z,84.20
2018-07-25T23:34:12.315Z,84.40
2018-07-25T23:36:39.444Z,84.80
2018-07-25T23:39:07.369Z,84.50
2018-07-25T23:41:34.555Z,84.40
2018-07-25T23:44:01.680Z,84.30
2018-07-25T23:46:28.916Z,84.30
2018-07-25T23:48:56.156Z,84.50
2018-07-25T23:51:23.280Z,85.00
2018-07-25T23:53:51.000Z,85.50
2018-07-25T23:56:18.127Z,85.80
2018-07-25T23:58:45.406Z,86.20
